Time;durP1;ratioP1;P1;durP2;ratioP2;P2;SDS_P1;SDS_P2;PMS_P1;PMS_P2;Temp;Humidity;BMP_temperature;BMP_pressure;BME280_temperature;BME280_humidity;BME280_pressure;Samples;Min_cycle;Max_cycle;Signal;HPM_P1;HPM_P2
2024/01/10 00:00:09;;;;;;;;;;;17.00;45.90;;;;;;7394656;19;1965;-72
2024/01/10 00:02:35;;;;;;;;;;;17.00;46.00;;;;;;7398467;19;2110;-73
2024/01/10 00:05:00;;;;;;;;;;;17.10;46.00;;;;;;7393853;19;1103;-73
2024/01/10 00:07:26;;;;;;;;;;;17.10;46.10;;;;;;7392339;19;1292;-72
2024/01/10 00:09:51;;;;;;;;;;;17.20;46.00;;;;;;7397116;19;2189;-73
2024/01/10 00:12:17;;;;;;;;;;;17.20;45.90;;;;;;7393345;19;2167;-73
2024/01/10 00:14:42;;;;;;;;;;;17.20;45.80;;;;;;7390689;19;2339;-72
2024/01/10 00:17:11;;;;;;;;;;;17.20;45.80;;;;;;7392378;19;2996;-73
2024/01/10 00:19:37;;;;;;;;;;;17.20;45.70;;;;;;7392361;19;2037;-72
2024/01/10 00:22:02;;;;;;;;;;;17.10;45.70;;;;;;7395354;19;2147;-72
2024/01/10 00:24:28;;;;;;;;;;;17.10;45.70;;;;;;7394170;19;1717;-72
2024/01/10 00:26:53;;;;;;;;;;;17.00;45.80;;;;;;7394536;19;1956;-73
2024/01/10 00:29:19;;;;;;;;;;;17.00;45.90;;;;;;7394755;19;2193;-73
2024/01/10 00:31:44;;;;;;;;;;;16.90;46.00;;;;;;7394439;19;2096;-72
2024/01/10 00:34:10;;;;;;;;;;;16.90;46.00;;;;;;7393993;19;1933;-73
2024/01/10 00:36:35;;;;;;;;;;;16.90;45.90;;;;;;7390681;19;2854;-72
2024/01/10 00:39:01;;;;;;;;;;;16.90;46.00;;;;;;7392074;19;2130;-72
2024/01/10 00:41:26;;;;;;;;;;;16.90;45.80;;;;;;7393942;19;2017;-72
2024/01/10 00:43:52;;;;;;;;;;;16.90;45.90;;;;;;7392367;19;3099;-72
2024/01/10 00:46:17;;;;;;;;;;;16.90;46.00;;;;;;7393075;19;2253;-73
2024/01/10 00:48:43;;;;;;;;;;;16.90;45.90;;;;;;7394902;19;2103;-71
2024/01/10 00:51:08;;;;;;;;;;;16.90;45.80;;;;;;7403938;19;1551;-72
2024/01/10 00:53:34;;;;;;;;;;;16.90;45.70;;;;;;7401968;19;1865;-72
2024/01/10 00:56:00;;;;;;;;;;;17.00;45.60;;;;;;7401681;19;2095;-72
2024/01/10 00:58:25;;;;;;;;;;;17.00;45.60;;;;;;7398652;19;2163;-73
2024/01/10 01:00:50;;;;;;;;;;;17.10;46.10;;;;;;7401253;19;2013;-72
2024/01/10 01:03:16;;;;;;;;;;;17.10;45.70;;;;;;7404066;19;1676;-72
2024/01/10 01:05:41;;;;;;;;;;;17.20;45.90;;;;;;7404143;19;1521;-73
2024/01/10 01:08:07;;;;;;;;;;;17.30;45.70;;;;;;7400214;19;1899;-73
2024/01/10 01:10:33;;;;;;;;;;;17.30;45.50;;;;;;7399155;19;2206;-72
2024/01/10 01:12:58;;;;;;;;;;;17.20;45.50;;;;;;7400109;19;2194;-72
2024/01/10 01:15:24;;;;;;;;;;;17.10;45.50;;;;;;7399858;19;1906;-73
2024/01/10 01:17:49;;;;;;;;;;;17.00;45.40;;;;;;7399782;19;2715;-73
2024/01/10 01:20:15;;;;;;;;;;;17.00;45.50;;;;;;7399296;19;2052;-72
2024/01/10 01:22:40;;;;;;;;;;;17.00;45.70;;;;;;7398665;19;2169;-73
2024/01/10 01:25:06;;;;;;;;;;;16.90;45.90;;;;;;7398703;19;1685;-73
2024/01/10 01:27:31;;;;;;;;;;;16.80;45.90;;;;;;7400606;19;2298;-73
2024/01/10 01:29:57;;;;;;;;;;;16.80;46.00;;;;;;7400201;19;1305;-72
2024/01/10 01:32:22;;;;;;;;;;;16.80;45.90;;;;;;7399179;19;1628;-72
2024/01/10 01:34:48;;;;;;;;;;;16.80;45.70;;;;;;7396631;19;2032;-73
2024/01/10 01:37:13;;;;;;;;;;;16.80;45.80;;;;;;7397382;19;2547;-72
2024/01/10 01:39:39;;;;;;;;;;;16.80;45.80;;;;;;7402143;19;1648;-73
2024/01/10 01:42:04;;;;;;;;;;;16.90;45.80;;;;;;7397453;19;2075;-72
2024/01/10 01:44:31;;;;;;;;;;;16.80;45.70;;;;;;7397690;19;2375;-73
2024/01/10 01:46:57;;;;;;;;;;;16.80;45.70;;;;;;7398085;19;2060;-73
2024/01/10 01:49:24;;;;;;;;;;;16.80;45.70;;;;;;7396991;19;1330;-73
2024/01/10 01:51:50;;;;;;;;;;;16.90;45.60;;;;;;7396129;19;2455;-73
2024/01/10 01:54:15;;;;;;;;;;;17.00;45.60;;;;;;7396950;19;1830;-73
2024/01/10 01:56:40;;;;;;;;;;;17.00;45.40;;;;;;7396591;19;2115;-73
2024/01/10 01:59:06;;;;;;;;;;;17.10;45.70;;;;;;7396723;19;1857;-73
2024/01/10 02:01:31;;;;;;;;;;;17.20;45.60;;;;;;7396111;19;1841;-72
2024/01/10 02:03:57;;;;;;;;;;;17.20;45.60;;;;;;7400759;19;1914;-72
2024/01/10 02:06:22;;;;;;;;;;;17.20;45.40;;;;;;7399825;19;1516;-73
2024/01/10 02:08:48;;;;;;;;;;;17.10;45.10;;;;;;7394814;19;1838;-73
2024/01/10 02:11:13;;;;;;;;;;;17.10;45.10;;;;;;7400040;19;1895;-72
2024/01/10 02:13:39;;;;;;;;;;;17.00;45.20;;;;;;7399832;19;1853;-73
2024/01/10 02:16:05;;;;;;;;;;;17.00;45.30;;;;;;7398212;19;1592;-72
2024/01/10 02:18:30;;;;;;;;;;;16.90;45.30;;;;;;7397330;19;3079;-73
2024/01/10 02:20:57;;;;;;;;;;;16.90;45.40;;;;;;7399139;19;1845;-73
2024/01/10 02:23:23;;;;;;;;;;;16.90;45.60;;;;;;7398532;19;1664;-72
2024/01/10 02:25:48;;;;;;;;;;;16.80;45.50;;;;;;7395482;19;1772;-72
2024/01/10 02:28:14;;;;;;;;;;;16.90;45.40;;;;;;7398665;19;2126;-72
2024/01/10 02:30:39;;;;;;;;;;;16.80;45.40;;;;;;7395153;19;1931;-73
2024/01/10 02:33:05;;;;;;;;;;;16.80;45.40;;;;;;7396964;19;1932;-72
2024/01/10 02:35:32;;;;;;;;;;;16.90;45.60;;;;;;7396822;19;1580;-73
2024/01/10 02:37:58;;;;;;;;;;;16.80;45.50;;;;;;7398520;19;1855;-73
2024/01/10 02:40:23;;;;;;;;;;;16.80;45.50;;;;;;7398652;19;2161;-72
2024/01/10 02:42:50;;;;;;;;;;;16.80;45.70;;;;;;7397390;19;2159;-72
2024/01/10 02:45:16;;;;;;;;;;;16.80;45.40;;;;;;7398590;19;1836;-72
2024/01/10 02:47:42;;;;;;;;;;;16.80;45.30;;;;;;7395920;19;2065;-72
2024/01/10 02:50:07;;;;;;;;;;;16.90;45.70;;;;;;7395465;19;1999;-72
2024/01/10 02:52:33;;;;;;;;;;;17.00;45.50;;;;;;7396629;19;2057;-73
2024/01/10 02:54:58;;;;;;;;;;;17.10;45.40;;;;;;7394838;19;2213;-73
2024/01/10 02:57:23;;;;;;;;;;;17.20;45.40;;;;;;7398173;19;1678;-73
2024/01/10 02:59:49;;;;;;;;;;;17.20;45.10;;;;;;7396134;19;1977;-73
2024/01/10 03:02:14;;;;;;;;;;;17.10;45.10;;;;;;7396874;19;1928;-73
2024/01/10 03:04:40;;;;;;;;;;;17.10;44.90;;;;;;7398942;19;1881;-72
2024/01/10 03:07:05;;;;;;;;;;;17.10;45.00;;;;;;7395767;19;1329;-73
2024/01/10 03:09:31;;;;;;;;;;;17.00;45.00;;;;;;7396973;19;1786;-73
2024/01/10 03:11:56;;;;;;;;;;;17.00;45.10;;;;;;7392826;19;2142;-73
2024/01/10 03:14:22;;;;;;;;;;;16.90;45.30;;;;;;7394581;19;2129;-73
2024/01/10 03:16:48;;;;;;;;;;;16.90;45.30;;;;;;7395946;19;1941;-72
2024/01/10 03:19:13;;;;;;;;;;;16.80;45.30;;;;;;7396369;19;1779;-73
2024/01/10 03:21:39;;;;;;;;;;;16.80;45.30;;;;;;7397909;19;1271;-73
2024/01/10 03:24:04;;;;;;;;;;;16.70;45.30;;;;;;7398253;19;2287;-72
2024/01/10 03:26:30;;;;;;;;;;;16.70;45.50;;;;;;7396325;19;2292;-73
2024/01/10 03:28:55;;;;;;;;;;;16.70;45.40;;;;;;7398408;19;1866;-73
2024/01/10 03:31:21;;;;;;;;;;;16.70;45.50;;;;;;7397361;19;2087;-73
2024/01/10 03:33:46;;;;;;;;;;;16.70;46.20;;;;;;7395441;19;1850;-72
2024/01/10 03:36:13;;;;;;;;;;;16.70;45.50;;;;;;7395314;19;2325;-72
2024/01/10 03:38:39;;;;;;;;;;;16.70;45.40;;;;;;7396331;19;1927;-72
2024/01/10 03:41:04;;;;;;;;;;;16.70;45.20;;;;;;7395895;19;2165;-72
2024/01/10 03:43:30;;;;;;;;;;;16.80;45.20;;;;;;7395040;19;2046;-73
2024/01/10 03:45:56;;;;;;;;;;;16.80;45.10;;;;;;7394611;19;1997;-72
2024/01/10 03:48:22;;;;;;;;;;;16.90;46.10;;;;;;7390545;19;3099;-73
2024/01/10 03:50:47;;;;;;;;;;;17.00;45.40;;;;;;7395375;19;1792;-72
2024/01/10 03:53:13;;;;;;;;;;;17.10;45.30;;;;;;7392249;19;2456;-73
2024/01/10 03:55:39;;;;;;;;;;;17.10;45.10;;;;;;7393669;19;1982;-72
2024/01/10 03:58:04;;;;;;;;;;;17.10;45.10;;;;;;7391615;19;1706;-73
2024/01/10 04:00:30;;;;;;;;;;;17.10;45.10;;;;;;7391715;19;2249;-72
2024/01/10 04:02:55;;;;;;;;;;;17.00;45.00;;;;;;7395441;19;2034;-73
2024/01/10 04:05:21;;;;;;;;;;;16.90;44.90;;;;;;7396779;19;2142;-73
2024/01/10 04:07:46;;;;;;;;;;;16.90;45.00;;;;;;7393380;19;2450;-72
2024/01/10 04:10:13;;;;;;;;;;;16.80;45.10;;;;;;7396285;19;2255;-73
2024/01/10 04:12:42;;;;;;;;;;;16.80;45.20;;;;;;7395982;19;2135;-72
2024/01/10 04:15:08;;;;;;;;;;;16.80;45.20;;;;;;7394760;19;1854;-72
2024/01/10 04:17:33;;;;;;;;;;;16.80;45.20;;;;;;7396296;19;1998;-73
2024/01/10 04:19:59;;;;;;;;;;;16.80;45.10;;;;;;7395599;19;1648;-72
2024/01/10 04:22:24;;;;;;;;;;;16.80;45.20;;;;;;7395681;19;2076;-72
2024/01/10 04:24:50;;;;;;;;;;;16.70;45.20;;;;;;7400757;19;2181;-72
2024/01/10 04:27:15;;;;;;;;;;;16.80;45.20;;;;;;7401380;19;2164;-72
2024/01/10 04:29:41;;;;;;;;;;;16.80;45.20;;;;;;7402875;19;2094;-73
2024/01/10 04:32:06;;;;;;;;;;;16.70;45.20;;;;;;7401663;19;2294;-73
2024/01/10 04:34:32;;;;;;;;;;;16.80;45.20;;;;;;7400325;19;2146;-72
2024/01/10 04:36:57;;;;;;;;;;;16.80;45.20;;;;;;7400470;19;2003;-72
2024/01/10 04:39:23;;;;;;;;;;;16.80;45.10;;;;;;7401684;19;2172;-72
2024/01/10 04:41:48;;;;;;;;;;;16.90;45.20;;;;;;7400262;19;1960;-73
2024/01/10 04:44:14;;;;;;;;;;;16.90;45.30;;;;;;7399359;19;2278;-72
2024/01/10 04:46:40;;;;;;;;;;;17.00;45.30;;;;;;7401321;19;2331;-72
2024/01/10 04:49:06;;;;;;;;;;;17.00;45.30;;;;;;7400965;19;2193;-72
2024/01/10 04:51:31;;;;;;;;;;;17.00;45.00;;;;;;7402246;19;2275;-73
2024/01/10 04:53:57;;;;;;;;;;;17.00;45.20;;;;;;7400305;19;1823;-72
2024/01/10 04:56:22;;;;;;;;;;;17.00;45.00;;;;;;7400026;19;2278;-72
2024/01/10 04:58:48;;;;;;;;;;;17.00;45.00;;;;;;7402470;19;2076;-72
2024/01/10 05:01:13;;;;;;;;;;;16.90;45.10;;;;;;7399851;19;3223;-72
2024/01/10 05:03:39;;;;;;;;;;;16.80;45.20;;;;;;7402467;19;819;-72
2024/01/10 05:06:04;;;;;;;;;;;16.80;45.30;;;;;;7402754;19;1510;-72
2024/01/10 05:08:30;;;;;;;;;;;16.80;45.20;;;;;;7393735;19;2562;-72
2024/01/10 05:10:55;;;;;;;;;;;16.80;45.40;;;;;;7394190;19;2688;-72
2024/01/10 05:13:21;;;;;;;;;;;16.70;45.40;;;;;;7398620;19;1849;-72
2024/01/10 05:15:46;;;;;;;;;;;16.70;45.30;;;;;;7399475;19;2284;-72
2024/01/10 05:18:12;;;;;;;;;;;16.70;45.30;;;;;;7398724;19;2196;-72
2024/01/10 05:20:37;;;;;;;;;;;16.70;45.40;;;;;;7399426;19;1863;-72
2024/01/10 05:23:03;;;;;;;;;;;16.70;45.40;;;;;;7398739;19;2054;-72
2024/01/10 05:25:29;;;;;;;;;;;16.60;45.30;;;;;;7401589;19;1982;-72
2024/01/10 05:27:54;;;;;;;;;;;16.60;45.30;;;;;;7399085;19;1665;-72
2024/01/10 05:30:20;;;;;;;;;;;16.70;45.30;;;;;;7398356;19;2239;-72
2024/01/10 05:32:45;;;;;;;;;;;16.70;45.20;;;;;;7400013;19;2132;-72
2024/01/10 05:35:11;;;;;;;;;;;16.80;45.20;;;;;;7395667;19;1993;-72
2024/01/10 05:37:36;;;;;;;;;;;16.90;45.30;;;;;;7400472;19;2147;-72
2024/01/10 05:40:02;;;;;;;;;;;17.00;45.10;;;;;;7397999;19;2209;-72
2024/01/10 05:42:27;;;;;;;;;;;17.00;45.20;;;;;;7399541;19;1646;-72
2024/01/10 05:44:53;;;;;;;;;;;17.00;45.00;;;;;;7399709;19;1727;-72
2024/01/10 05:47:18;;;;;;;;;;;17.00;45.00;;;;;;7399312;19;2004;-72
2024/01/10 05:49:44;;;;;;;;;;;17.00;44.90;;;;;;7401759;19;1906;-72
2024/01/10 05:52:09;;;;;;;;;;;16.90;44.80;;;;;;7400120;19;1549;-72
2024/01/10 05:54:35;;;;;;;;;;;16.90;45.00;;;;;;7394352;19;4099;-72
2024/01/10 05:57:00;;;;;;;;;;;16.80;45.00;;;;;;7402054;19;1529;-72
2024/01/10 05:59:26;;;;;;;;;;;16.80;45.10;;;;;;7396394;19;1855;-72
2024/01/10 06:01:52;;;;;;;;;;;16.70;45.10;;;;;;7399832;19;2018;-72
2024/01/10 06:04:17;;;;;;;;;;;16.70;45.20;;;;;;7399933;19;1655;-72
2024/01/10 06:06:42;;;;;;;;;;;16.70;45.40;;;;;;7396665;19;2066;-72
2024/01/10 06:09:11;;;;;;;;;;;16.60;45.40;;;;;;7394576;19;2058;-72
2024/01/10 06:11:45;;;;;;;;;;;16.60;45.60;;;;;;7395294;19;2569;-72
2024/01/10 06:14:10;;;;;;;;;;;16.60;45.60;;;;;;7397261;19;2839;-72
2024/01/10 06:16:36;;;;;;;;;;;16.60;45.40;;;;;;7398471;19;2056;-73
2024/01/10 06:19:01;;;;;;;;;;;16.60;45.40;;;;;;7398144;19;1995;-72
2024/01/10 06:21:27;;;;;;;;;;;16.70;45.50;;;;;;7396630;19;1632;-72
2024/01/10 06:23:52;;;;;;;;;;;16.70;45.40;;;;;;7394390;19;3155;-72
2024/01/10 06:26:18;;;;;;;;;;;16.80;45.40;;;;;;7395914;19;2584;-72
2024/01/10 06:28:43;;;;;;;;;;;16.90;45.20;;;;;;7396958;19;994;-73
2024/01/10 06:31:08;;;;;;;;;;;17.00;45.20;;;;;;7396583;19;982;-73
2024/01/10 06:33:34;;;;;;;;;;;17.10;45.00;;;;;;7396491;19;2067;-73
2024/01/10 06:35:59;;;;;;;;;;;17.20;44.80;;;;;;7398220;19;2114;-72
2024/01/10 06:38:25;;;;;;;;;;;17.30;44.90;;;;;;7396361;19;1953;-73
2024/01/10 06:40:50;;;;;;;;;;;17.30;44.60;;;;;;7396310;19;1861;-73
2024/01/10 06:43:16;;;;;;;;;;;17.30;44.50;;;;;;7396438;19;2433;-72
2024/01/10 06:45:42;;;;;;;;;;;17.30;44.40;;;;;;7395002;19;2263;-73
2024/01/10 06:48:08;;;;;;;;;;;17.20;44.40;;;;;;7395237;19;2044;-72
2024/01/10 06:50:33;;;;;;;;;;;17.10;44.60;;;;;;7395823;19;2511;-72
2024/01/10 06:52:59;;;;;;;;;;;17.10;44.70;;;;;;7397927;19;2237;-72
2024/01/10 06:55:24;;;;;;;;;;;17.00;44.70;;;;;;7396580;19;2051;-72
2024/01/10 06:57:52;;;;;;;;;;;17.00;44.90;;;;;;7395426;19;2195;-72
2024/01/10 07:00:20;;;;;;;;;;;17.00;44.90;;;;;;7399826;19;2457;-72
2024/01/10 07:02:45;;;;;;;;;;;17.00;44.90;;;;;;7396568;19;3085;-72
2024/01/10 07:05:10;;;;;;;;;;;16.90;44.90;;;;;;7395986;19;1608;-72
2024/01/10 07:07:36;;;;;;;;;;;16.90;44.90;;;;;;7394834;19;1985;-72
2024/01/10 07:10:04;;;;;;;;;;;16.90;44.80;;;;;;7395074;19;1922;-72
2024/01/10 07:12:33;;;;;;;;;;;16.90;45.00;;;;;;7394412;19;2091;-72
2024/01/10 07:14:58;;;;;;;;;;;16.90;44.90;;;;;;7395044;19;2247;-72
2024/01/10 07:17:24;;;;;;;;;;;17.00;45.00;;;;;;7393700;19;2244;-73
2024/01/10 07:19:49;;;;;;;;;;;16.90;44.80;;;;;;7393911;19;2018;-72
2024/01/10 07:22:15;;;;;;;;;;;17.00;44.80;;;;;;7392601;19;1684;-72
2024/01/10 07:24:40;;;;;;;;;;;17.00;45.10;;;;;;7395632;19;2241;-72
2024/01/10 07:27:07;;;;;;;;;;;17.10;44.90;;;;;;7390127;19;2400;-73
2024/01/10 07:29:32;;;;;;;;;;;17.20;44.80;;;;;;7394594;19;2252;-73
2024/01/10 07:31:57;;;;;;;;;;;17.30;44.40;;;;;;7394256;19;2167;-73
2024/01/10 07:34:23;;;;;;;;;;;17.30;44.40;;;;;;7392711;19;2293;-73
2024/01/10 07:36:48;;;;;;;;;;;17.40;44.40;;;;;;7395274;19;2320;-73
2024/01/10 07:39:18;;;;;;;;;;;17.40;44.30;;;;;;7395621;19;2416;-72
2024/01/10 07:41:46;;;;;;;;;;;17.30;44.20;;;;;;7396135;19;2029;-73
2024/01/10 07:44:12;;;;;;;;;;;17.30;44.50;;;;;;7397692;19;2342;-73
2024/01/10 07:46:38;;;;;;;;;;;17.20;44.50;;;;;;7393167;19;2078;-72
2024/01/10 07:49:04;;;;;;;;;;;17.10;44.50;;;;;;7393119;19;1942;-74
2024/01/10 07:51:30;;;;;;;;;;;17.10;44.70;;;;;;7395326;19;2022;-74
2024/01/10 07:53:55;;;;;;;;;;;17.10;44.80;;;;;;7392608;19;1848;-74
2024/01/10 07:56:21;;;;;;;;;;;17.00;44.80;;;;;;7393649;19;2182;-74
2024/01/10 07:58:46;;;;;;;;;;;17.00;44.90;;;;;;7400213;19;2382;-74
2024/01/10 08:01:12;;;;;;;;;;;17.00;44.90;;;;;;7402339;19;1855;-74
2024/01/10 08:03:37;;;;;;;;;;;17.00;44.80;;;;;;7399623;19;3049;-74
2024/01/10 08:06:03;;;;;;;;;;;17.00;44.80;;;;;;7402639;19;1590;-74
2024/01/10 08:08:28;;;;;;;;;;;17.00;45.10;;;;;;7401894;19;1968;-75
2024/01/10 08:10:55;;;;;;;;;;;16.90;44.80;;;;;;7402606;19;1999;-74
2024/01/10 08:13:21;;;;;;;;;;;16.90;44.90;;;;;;7401947;19;2175;-74
2024/01/10 08:15:46;;;;;;;;;;;17.00;44.70;;;;;;7404065;19;1648;-74
2024/01/10 08:18:13;;;;;;;;;;;17.00;44.80;;;;;;7402014;19;2088;-74
2024/01/10 08:20:39;;;;;;;;;;;17.10;44.80;;;;;;7401952;19;1719;-74
2024/01/10 08:23:05;;;;;;;;;;;17.10;45.00;;;;;;7395068;19;2903;-74
2024/01/10 08:25:30;;;;;;;;;;;17.20;45.00;;;;;;7402069;19;2170;-74
2024/01/10 08:27:57;;;;;;;;;;;17.20;44.80;;;;;;7399322;19;2037;-74
2024/01/10 08:30:23;;;;;;;;;;;17.30;44.70;;;;;;7399343;19;3264;-74
2024/01/10 08:32:48;;;;;;;;;;;17.30;44.60;;;;;;7400011;19;2994;-74
2024/01/10 08:35:14;;;;;;;;;;;17.30;44.60;;;;;;7397243;19;2096;-74
2024/01/10 08:37:42;;;;;;;;;;;17.30;44.40;;;;;;7401286;19;2266;-74
2024/01/10 08:40:12;;;;;;;;;;;17.30;44.60;;;;;;7400749;19;1735;-74
2024/01/10 08:42:38;;;;;;;;;;;17.20;44.80;;;;;;7394738;19;2299;-72
2024/01/10 08:45:03;;;;;;;;;;;17.20;44.80;;;;;;7387154;19;2747;-73
2024/01/10 08:47:32;;;;;;;;;;;17.10;45.10;;;;;;7389326;19;2645;-73
2024/01/10 08:50:01;;;;;;;;;;;17.40;45.90;;;;;;7399037;19;2107;-75
2024/01/10 08:52:26;;;;;;;;;;;18.30;44.30;;;;;;7400584;19;3051;-73
2024/01/10 08:54:52;;;;;;;;;;;18.90;43.30;;;;;;7399048;19;1861;-73
2024/01/10 08:57:17;;;;;;;;;;;19.30;42.50;;;;;;7399787;19;2147;-73
2024/01/10 08:59:43;;;;;;;;;;;19.60;41.90;;;;;;7400265;19;2171;-73
2024/01/10 09:02:08;;;;;;;;;;;19.80;41.60;;;;;;7400679;19;3341;-73
2024/01/10 09:04:33;;;;;;;;;;;19.90;41.50;;;;;;7395745;19;2630;-73
2024/01/10 09:06:59;;;;;;;;;;;19.90;41.30;;;;;;7391197;19;1965;-73
2024/01/10 09:09:24;;;;;;;;;;;20.00;41.10;;;;;;7392469;19;1948;-73
2024/01/10 09:11:50;;;;;;;;;;;20.10;41.00;;;;;;7392494;19;1892;-74
2024/01/10 09:14:15;;;;;;;;;;;20.10;41.10;;;;;;7392089;19;2157;-72
2024/01/10 09:16:41;;;;;;;;;;;20.20;40.90;;;;;;7398665;19;2040;-73
2024/01/10 09:19:06;;;;;;;;;;;20.20;40.80;;;;;;7399042;19;2654;-73
2024/01/10 09:21:31;;;;;;;;;;;20.30;40.80;;;;;;7400745;19;1330;-73
2024/01/10 09:23:57;;;;;;;;;;;20.30;40.80;;;;;;7400743;19;1775;-73
2024/01/10 09:26:23;;;;;;;;;;;20.40;40.70;;;;;;7400039;19;1707;-73
2024/01/10 09:28:48;;;;;;;;;;;20.40;40.60;;;;;;7401001;19;1414;-73
2024/01/10 09:31:13;;;;;;;;;;;20.40;40.60;;;;;;7398742;19;1596;-74
2024/01/10 09:33:39;;;;;;;;;;;20.40;41.30;;;;;;7399564;19;1822;-73
2024/01/10 09:36:05;;;;;;;;;;;20.30;40.50;;;;;;7400276;19;1764;-74
2024/01/10 09:38:34;;;;;;;;;;;20.50;40.50;;;;;;7399700;19;1503;-73
2024/01/10 09:41:02;;;;;;;;;;;20.50;40.50;;;;;;7400923;19;1315;-73
2024/01/10 09:43:29;;;;;;;;;;;20.50;40.50;;;;;;7397452;19;1917;-74
2024/01/10 09:45:55;;;;;;;;;;;20.50;40.40;;;;;;7399756;19;1657;-73
2024/01/10 09:48:20;;;;;;;;;;;20.50;40.50;;;;;;7396575;19;2365;-73
2024/01/10 09:50:46;;;;;;;;;;;20.50;40.40;;;;;;7399100;19;1626;-74
2024/01/10 09:53:14;;;;;;;;;;;20.60;40.50;;;;;;7399806;19;1811;-73
2024/01/10 09:55:39;;;;;;;;;;;20.50;40.30;;;;;;7398543;19;1583;-73
2024/01/10 09:58:05;;;;;;;;;;;20.60;40.40;;;;;;7399458;19;1518;-73
2024/01/10 10:00:31;;;;;;;;;;;20.60;40.40;;;;;;7399661;19;1844;-73
2024/01/10 10:02:57;;;;;;;;;;;20.60;40.40;;;;;;7399940;19;1567;-73
2024/01/10 10:05:23;;;;;;;;;;;20.60;40.30;;;;;;7394512;19;2949;-72
2024/01/10 10:07:53;;;;;;;;;;;20.50;40.50;;;;;;7399018;19;1593;-73
2024/01/10 10:10:18;;;;;;;;;;;20.60;40.40;;;;;;7397318;19;1538;-73
2024/01/10 10:12:56;;;;;;;;;;;20.50;40.40;;;;;;7398663;19;1214;-73
2024/01/10 10:15:22;;;;;;;;;;;20.60;40.60;;;;;;7396265;19;1846;-73
2024/01/10 10:17:48;;;;;;;;;;;20.60;40.50;;;;;;7397403;19;1994;-73
2024/01/10 10:20:15;;;;;;;;;;;20.60;40.60;;;;;;7397122;19;1462;-73
2024/01/10 10:22:42;;;;;;;;;;;20.60;40.50;;;;;;7398394;19;1334;-73
2024/01/10 10:25:07;;;;;;;;;;;20.60;40.60;;;;;;7397748;19;1405;-73
2024/01/10 10:27:35;;;;;;;;;;;20.60;40.60;;;;;;7396991;19;1698;-73
2024/01/10 10:30:01;;;;;;;;;;;20.70;40.60;;;;;;7397711;19;1679;-73
2024/01/10 10:32:26;;;;;;;;;;;20.70;40.60;;;;;;7397854;19;1487;-73
2024/01/10 10:34:52;;;;;;;;;;;20.70;40.60;;;;;;7397059;19;1857;-73
2024/01/10 10:37:17;;;;;;;;;;;20.70;40.60;;;;;;7396420;19;2648;-72
2024/01/10 10:39:43;;;;;;;;;;;20.80;40.50;;;;;;7397237;19;1720;-72
2024/01/10 10:42:08;;;;;;;;;;;20.80;40.50;;;;;;7396709;19;1388;-72
2024/01/10 10:44:34;;;;;;;;;;;20.80;40.50;;;;;;7396918;19;1798;-73
2024/01/10 10:47:03;;;;;;;;;;;20.80;40.30;;;;;;7398158;19;1722;-73
2024/01/10 10:49:30;;;;;;;;;;;20.80;40.50;;;;;;7395143;19;1473;-73
2024/01/10 10:51:55;;;;;;;;;;;20.80;40.50;;;;;;7393403;19;2229;-73
2024/01/10 10:54:21;;;;;;;;;;;20.80;40.40;;;;;;7390389;19;3321;-73
2024/01/10 10:56:46;;;;;;;;;;;20.80;40.50;;;;;;7397767;19;2670;-73
2024/01/10 10:59:12;;;;;;;;;;;20.80;40.50;;;;;;7391065;19;2917;-72
2024/01/10 11:01:37;;;;;;;;;;;20.80;40.50;;;;;;7397741;19;1546;-73
2024/01/10 11:04:03;;;;;;;;;;;20.80;40.40;;;;;;7394013;19;1660;-73
2024/01/10 11:06:29;;;;;;;;;;;20.90;40.40;;;;;;7390525;19;2953;-73
2024/01/10 11:08:58;;;;;;;;;;;20.90;40.40;;;;;;7394848;19;1708;-72
2024/01/10 11:11:29;;;;;;;;;;;20.90;40.40;;;;;;7394437;19;1588;-73
2024/01/10 11:14:06;;;;;;;;;;;20.90;40.40;;;;;;7392331;19;2882;-73
2024/01/10 11:16:45;;;;;;;;;;;20.90;40.40;;;;;;7394878;19;1663;-73
2024/01/10 11:19:20;;;;;;;;;;;20.90;40.30;;;;;;7393768;19;1582;-73
2024/01/10 11:22:09;;;;;;;;;;;20.90;40.40;;;;;;7395806;19;2114;-73
2024/01/10 11:24:35;;;;;;;;;;;20.90;40.50;;;;;;7399474;19;1312;-73
2024/01/10 11:27:08;;;;;;;;;;;20.90;40.40;;;;;;7396994;19;1530;-72
2024/01/10 11:29:38;;;;;;;;;;;20.90;40.30;;;;;;7404905;19;2246;-72
2024/01/10 11:32:04;;;;;;;;;;;21.00;40.30;;;;;;7397326;19;2262;-73
2024/01/10 11:34:29;;;;;;;;;;;20.90;40.20;;;;;;7394502;19;1850;-73
2024/01/10 11:37:13;;;;;;;;;;;20.90;40.30;;;;;;7393218;19;2607;-73
2024/01/10 11:39:43;;;;;;;;;;;21.00;40.30;;;;;;7392562;19;1345;-73
2024/01/10 11:42:12;;;;;;;;;;;21.00;40.10;;;;;;7395053;19;1324;-73
2024/01/10 11:44:50;;;;;;;;;;;21.00;40.10;;;;;;7397032;19;1388;-72
2024/01/10 11:47:16;;;;;;;;;;;21.00;40.10;;;;;;7395790;19;1648;-73
2024/01/10 11:49:41;;;;;;;;;;;21.00;40.20;;;;;;7385392;19;2812;-73
2024/01/10 11:52:08;;;;;;;;;;;21.00;40.20;;;;;;7390993;19;3173;-72
2024/01/10 11:54:43;;;;;;;;;;;21.00;40.10;;;;;;7384016;19;3429;-73
2024/01/10 11:57:13;;;;;;;;;;;21.00;40.10;;;;;;7395930;19;1361;-73
2024/01/10 11:59:42;;;;;;;;;;;21.00;40.10;;;;;;7394688;19;1698;-74
2024/01/10 12:02:08;;;;;;;;;;;21.00;40.10;;;;;;7395106;19;1647;-73
2024/01/10 12:04:34;;;;;;;;;;;21.00;40.10;;;;;;7396742;19;1833;-73
2024/01/10 12:07:01;;;;;;;;;;;20.90;40.20;;;;;;7392238;19;1360;-73
2024/01/10 12:09:27;;;;;;;;;;;20.90;40.30;;;;;;7392063;19;2865;-74
2024/01/10 12:11:52;;;;;;;;;;;20.90;40.40;;;;;;7390149;19;2569;-74
2024/01/10 12:14:17;;;;;;;;;;;20.90;40.40;;;;;;7395703;19;1873;-72
2024/01/10 12:16:43;;;;;;;;;;;21.00;40.20;;;;;;7393950;19;1792;-73
2024/01/10 12:19:08;;;;;;;;;;;21.00;40.10;;;;;;7390854;19;2895;-72
2024/01/10 12:21:34;;;;;;;;;;;21.00;40.20;;;;;;7394657;19;3125;-73
2024/01/10 12:23:59;;;;;;;;;;;21.00;40.10;;;;;;7390730;19;3295;-73
2024/01/10 12:26:24;;;;;;;;;;;21.00;40.10;;;;;;7393990;19;2987;-73
2024/01/10 12:28:53;;;;;;;;;;;21.00;40.10;;;;;;7396488;19;1532;-74
2024/01/10 12:31:19;;;;;;;;;;;21.00;40.20;;;;;;7385217;19;3053;-73
2024/01/10 12:33:45;;;;;;;;;;;21.00;40.20;;;;;;7388280;19;2817;-73
2024/01/10 12:36:10;;;;;;;;;;;21.00;40.20;;;;;;7393851;19;1534;-73
2024/01/10 12:38:39;;;;;;;;;;;21.00;40.30;;;;;;7393682;19;1467;-73
2024/01/10 12:41:04;;;;;;;;;;;20.90;40.30;;;;;;7393044;19;1580;-73
2024/01/10 12:43:30;;;;;;;;;;;21.00;40.40;;;;;;7387958;19;2363;-73
2024/01/10 12:46:05;;;;;;;;;;;21.00;40.30;;;;;;7394828;19;2623;-73
2024/01/10 12:48:30;;;;;;;;;;;21.00;40.30;;;;;;7399833;19;3365;-73
2024/01/10 12:50:56;;;;;;;;;;;21.00;40.20;;;;;;7400222;19;2494;-72
2024/01/10 12:53:21;;;;;;;;;;;21.10;40.30;;;;;;7398201;19;3344;-73
2024/01/10 12:55:46;;;;;;;;;;;21.10;40.20;;;;;;7392411;19;3120;-73
2024/01/10 12:58:12;;;;;;;;;;;21.10;40.20;;;;;;7398804;19;2771;-73
2024/01/10 13:00:39;;;;;;;;;;;21.10;40.10;;;;;;7396707;19;2528;-73
2024/01/10 13:03:05;;;;;;;;;;;21.10;40.20;;;;;;7400654;19;1637;-73
2024/01/10 13:05:30;;;;;;;;;;;21.10;40.20;;;;;;7403232;19;1319;-73
2024/01/10 13:07:56;;;;;;;;;;;21.10;40.30;;;;;;7390802;19;3206;-73
2024/01/10 13:10:22;;;;;;;;;;;21.10;40.30;;;;;;7397966;19;2849;-73
2024/01/10 13:12:47;;;;;;;;;;;21.10;40.40;;;;;;7398551;19;1680;-74
2024/01/10 13:15:13;;;;;;;;;;;21.10;40.30;;;;;;7397365;19;1857;-74
2024/01/10 13:17:39;;;;;;;;;;;21.20;40.30;;;;;;7398994;19;1743;-72
2024/01/10 13:20:05;;;;;;;;;;;21.20;40.30;;;;;;7399374;19;1739;-73
2024/01/10 13:22:31;;;;;;;;;;;21.20;40.30;;;;;;7395464;19;2866;-73
2024/01/10 13:24:56;;;;;;;;;;;21.20;40.30;;;;;;7401283;19;2649;-72
2024/01/10 13:27:22;;;;;;;;;;;21.10;40.10;;;;;;7400773;19;1773;-73
2024/01/10 13:29:47;;;;;;;;;;;21.20;40.40;;;;;;7399410;19;2716;-73
2024/01/10 13:32:13;;;;;;;;;;;21.20;40.40;;;;;;7399488;19;2240;-73
2024/01/10 13:34:38;;;;;;;;;;;21.10;40.40;;;;;;7396659;19;2582;-73
2024/01/10 13:37:04;;;;;;;;;;;21.20;40.50;;;;;;7399876;19;1717;-73
2024/01/10 13:39:30;;;;;;;;;;;21.10;40.50;;;;;;7400851;19;1318;-72
2024/01/10 13:41:55;;;;;;;;;;;21.20;40.60;;;;;;7398526;19;1529;-73
2024/01/10 13:44:21;;;;;;;;;;;21.20;40.60;;;;;;7399191;19;1679;-73
2024/01/10 13:46:49;;;;;;;;;;;21.10;40.40;;;;;;7396122;19;2736;-73
2024/01/10 13:49:15;;;;;;;;;;;21.10;40.40;;;;;;7396426;19;1962;-73
2024/01/10 13:51:40;;;;;;;;;;;21.10;40.50;;;;;;7396491;19;1960;-73
2024/01/10 13:54:05;;;;;;;;;;;21.20;40.50;;;;;;7398250;19;1876;-73
2024/01/10 13:56:32;;;;;;;;;;;21.20;40.50;;;;;;7396534;19;1602;-72
2024/01/10 13:58:57;;;;;;;;;;;21.20;40.50;;;;;;7398202;19;1666;-72
2024/01/10 14:01:23;;;;;;;;;;;21.20;40.40;;;;;;7397984;19;1588;-73
2024/01/10 14:03:48;;;;;;;;;;;21.20;40.30;;;;;;7401095;19;1564;-73
2024/01/10 14:06:13;;;;;;;;;;;21.30;40.40;;;;;;7399507;19;1171;-73
2024/01/10 14:08:41;;;;;;;;;;;21.20;40.30;;;;;;7393872;19;2537;-73
2024/01/10 14:11:06;;;;;;;;;;;21.30;40.40;;;;;;7397063;19;2320;-73
2024/01/10 14:13:32;;;;;;;;;;;21.30;40.30;;;;;;7395398;19;1932;-72
2024/01/10 14:15:57;;;;;;;;;;;21.30;40.30;;;;;;7398414;19;1663;-73
2024/01/10 14:18:23;;;;;;;;;;;21.30;40.40;;;;;;7397470;19;1532;-73
2024/01/10 14:20:48;;;;;;;;;;;21.30;40.30;;;;;;7397546;19;2753;-73
2024/01/10 14:23:14;;;;;;;;;;;21.20;40.90;;;;;;7398170;19;1501;-72